createdAt,value
2018-06-05T00:02:24.423Z,63.00
2018-06-05T00:04:52.625Z,63.20
2018-06-05T00:07:20.806Z,63.30
2018-06-05T00:09:48.998Z,63.30
2018-06-05T00:14:45.126Z,63.50
2018-06-05T00:17:13.332Z,62.30
2018-06-05T00:19:41.558Z,62.60
2018-06-05T00:22:09.765Z,63.30
2018-06-05T00:24:37.950Z,63.30
2018-06-05T00:27:06.222Z,63.30
2018-06-05T00:29:34.823Z,64.00
2018-06-05T00:32:03.023Z,64.20
2018-06-05T00:34:31.211Z,64.80
2018-06-05T00:36:59.429Z,64.90
2018-06-05T00:41:56.105Z,65.90
2018-06-05T00:44:24.304Z,66.20
2018-06-05T00:46:52.518Z,66.40
2018-06-05T00:49:20.931Z,66.40
2018-06-05T00:52:00.592Z,66.60
2018-06-05T00:54:28.784Z,66.80
2018-06-05T00:56:56.995Z,67.40
2018-06-05T00:59:25.190Z,67.30
2018-06-05T01:01:53.394Z,67.10
2018-06-05T01:04:21.605Z,66.40
2018-06-05T01:06:49.801Z,66.00
2018-06-05T01:09:17.998Z,66.10
2018-06-05T01:11:46.165Z,66.20
2018-06-05T01:14:14.360Z,64.80
2018-06-05T01:16:42.658Z,65.60
2018-06-05T01:19:10.872Z,65.70
2018-06-05T01:21:39.074Z,65.60
2018-06-05T01:24:07.274Z,65.50
2018-06-05T01:26:35.482Z,66.10
2018-06-05T01:31:31.642Z,66.70
2018-06-05T01:33:59.848Z,67.40
2018-06-05T01:36:28.045Z,67.70
2018-06-05T01:38:56.264Z,67.90
2018-06-05T01:41:24.479Z,68.70
2018-06-05T01:43:52.667Z,68.10
2018-06-05T01:46:21.393Z,68.80
2018-06-05T01:48:49.596Z,69.00
2018-06-05T01:51:17.792Z,69.10
2018-06-05T01:53:46.038Z,69.90
2018-06-05T01:56:14.223Z,69.60
2018-06-05T01:58:42.428Z,69.20
2018-06-05T02:01:10.630Z,69.30
2018-06-05T02:03:38.818Z,69.50
2018-06-05T02:06:07.035Z,69.80
2018-06-05T02:08:35.218Z,69.30
2018-06-05T02:11:03.414Z,69.90
2018-06-05T02:15:59.557Z,68.60
2018-06-05T02:20:55.735Z,69.10
2018-06-05T02:23:23.960Z,68.40
2018-06-05T02:25:52.255Z,69.30
2018-06-05T02:28:20.446Z,70.00
2018-06-05T02:30:48.910Z,70.70
2018-06-05T02:35:45.064Z,70.60
2018-06-05T02:38:13.263Z,70.30
2018-06-05T02:40:41.475Z,70.80
2018-06-05T02:43:09.685Z,70.70
2018-06-05T02:48:05.828Z,70.40
2018-06-05T02:50:34.029Z,69.80
2018-06-05T02:53:02.254Z,70.50
2018-06-05T02:55:30.442Z,70.70
2018-06-05T03:00:26.594Z,71.30
2018-06-05T03:02:54.795Z,71.30
2018-06-05T03:05:23.002Z,71.50
2018-06-05T03:07:51.215Z,70.40
2018-06-05T03:10:19.432Z,69.30
2018-06-05T03:12:47.636Z,70.00
2018-06-05T03:15:15.854Z,69.90
2018-06-05T03:17:44.064Z,70.60
2018-06-05T03:20:12.314Z,71.00
2018-06-05T03:22:40.598Z,70.30
2018-06-05T03:25:09.038Z,71.30
2018-06-05T03:30:05.393Z,71.20
2018-06-05T03:32:33.780Z,70.70
2018-06-05T03:35:02.078Z,71.00
2018-06-05T03:37:30.267Z,70.60
2018-06-05T03:39:58.506Z,70.40
2018-06-05T03:42:26.862Z,71.20
2018-06-05T03:44:55.067Z,71.00
2018-06-05T03:47:23.359Z,70.80
2018-06-05T03:49:51.711Z,70.60
2018-06-05T03:52:20.149Z,69.50
2018-06-05T03:54:48.335Z,70.20
2018-06-05T03:57:16.522Z,71.00
2018-06-05T03:59:44.729Z,70.00
2018-06-05T04:02:12.931Z,70.20
2018-06-05T04:04:41.128Z,70.70
2018-06-05T04:07:09.331Z,71.40
2018-06-05T04:09:38.440Z,72.50
2018-06-05T04:12:06.659Z,72.30
2018-06-05T04:14:34.874Z,73.00
2018-06-05T04:17:03.060Z,73.30
2018-06-05T04:19:31.240Z,73.70
2018-06-05T04:21:59.434Z,72.40
2018-06-05T04:24:27.617Z,72.00
2018-06-05T04:26:55.843Z,72.30
2018-06-05T04:31:52.015Z,75.30
2018-06-05T04:34:20.196Z,76.00
2018-06-05T04:36:48.446Z,74.10
2018-06-05T04:39:16.657Z,73.00
2018-06-05T04:41:44.850Z,72.50
2018-06-05T04:44:13.051Z,72.70
2018-06-05T04:49:09.182Z,73.20
2018-06-05T04:51:37.366Z,73.20
2018-06-05T04:54:05.571Z,73.10
2018-06-05T04:56:33.761Z,73.10
2018-06-05T04:59:01.988Z,73.00
2018-06-05T05:01:30.173Z,73.40
2018-06-05T05:03:58.361Z,73.80
2018-06-05T05:06:26.591Z,73.70
2018-06-05T05:08:54.796Z,73.70
2018-06-05T05:11:23.008Z,73.20
2018-06-05T05:13:51.205Z,73.00
2018-06-05T05:16:19.439Z,72.20
2018-06-05T05:18:47.579Z,72.60
2018-06-05T05:21:15.778Z,72.90
2018-06-05T05:23:43.970Z,72.40
2018-06-05T05:26:12.180Z,73.10
2018-06-05T05:28:40.374Z,73.00
2018-06-05T05:33:36.529Z,73.20
2018-06-05T05:36:04.764Z,74.60
2018-06-05T05:38:32.967Z,74.30
2018-06-05T05:43:29.197Z,74.10
2018-06-05T05:48:25.336Z,73.30
2018-06-05T05:50:53.571Z,73.50
2018-06-05T05:53:21.780Z,72.90
2018-06-05T05:55:49.978Z,73.00
2018-06-05T05:58:18.195Z,72.60
2018-06-05T06:00:46.385Z,72.30
2018-06-05T06:03:14.599Z,72.60
2018-06-05T06:05:42.800Z,72.40
2018-06-05T06:08:10.991Z,72.40
2018-06-05T06:10:39.188Z,71.90
2018-06-05T06:13:07.395Z,69.80
2018-06-05T06:15:35.600Z,68.40
2018-06-05T06:18:04.247Z,67.80
2018-06-05T06:20:32.427Z,68.20
2018-06-05T06:27:56.543Z,64.30
2018-06-05T06:30:24.732Z,63.50
2018-06-05T06:32:52.934Z,65.20
2018-06-05T06:35:21.134Z,61.80
2018-06-05T06:37:49.344Z,60.40
2018-06-05T06:42:45.525Z,59.00
2018-06-05T06:45:13.723Z,59.30
2018-06-05T06:50:09.952Z,57.50
2018-06-05T06:52:38.134Z,56.80
2018-06-05T06:55:06.335Z,56.90
2018-06-05T06:57:34.539Z,58.80
2018-06-05T07:00:02.772Z,57.10
2018-06-05T07:02:30.997Z,56.30
2018-06-05T07:04:59.187Z,55.80
2018-06-05T07:07:27.406Z,54.10
2018-06-05T07:12:23.560Z,53.70
2018-06-05T07:17:19.711Z,53.90
2018-06-05T07:19:47.897Z,52.10
2018-06-05T07:22:16.079Z,52.00
2018-06-05T07:24:44.272Z,54.50
2018-06-05T07:27:12.450Z,51.60
2018-06-05T07:29:40.695Z,52.60
2018-06-05T07:32:08.892Z,51.40
2018-06-05T07:34:37.085Z,50.80
2018-06-05T07:37:05.292Z,51.40
2018-06-05T07:39:33.488Z,51.60
2018-06-05T07:42:01.686Z,49.90
2018-06-05T07:44:29.943Z,50.00
2018-06-05T07:46:58.150Z,51.30
2018-06-05T07:49:26.363Z,51.60
2018-06-05T07:51:54.550Z,50.70
2018-06-05T07:54:22.753Z,51.00
2018-06-05T07:56:50.959Z,50.90
2018-06-05T07:59:19.164Z,48.40
2018-06-05T08:01:47.358Z,48.00
2018-06-05T08:04:15.551Z,47.40
2018-06-05T08:06:43.763Z,49.00
2018-06-05T08:09:11.946Z,48.10
2018-06-05T08:11:40.143Z,48.60
2018-06-05T08:14:08.344Z,49.00
2018-06-05T08:16:36.535Z,50.60
2018-06-05T08:19:04.769Z,47.60
2018-06-05T08:21:32.974Z,47.30
2018-06-05T08:24:01.145Z,47.80
2018-06-05T08:26:42.610Z,48.20
2018-06-05T08:29:10.845Z,47.60
2018-06-05T08:31:39.061Z,47.30
2018-06-05T08:34:07.254Z,47.80
2018-06-05T08:36:35.468Z,47.90
2018-06-05T08:39:03.953Z,49.40
2018-06-05T08:41:32.161Z,47.30
2018-06-05T08:44:00.355Z,47.50
2018-06-05T08:46:28.560Z,47.20
2018-06-05T08:48:56.761Z,48.70
2018-06-05T08:53:52.911Z,46.00
2018-06-05T08:56:21.123Z,45.40
2018-06-05T08:58:49.374Z,48.00
2018-06-05T09:01:17.590Z,46.30
2018-06-05T09:03:45.776Z,46.60
2018-06-05T09:06:13.988Z,45.40
2018-06-05T09:08:42.177Z,46.60
2018-06-05T09:11:10.372Z,47.30
2018-06-05T09:13:38.571Z,47.10
2018-06-05T09:16:06.770Z,45.90
2018-06-05T09:18:34.980Z,46.90
2018-06-05T09:21:03.168Z,45.60
2018-06-05T09:23:31.355Z,43.70
2018-06-05T09:25:59.558Z,44.10
2018-06-05T09:30:55.851Z,45.00
2018-06-05T09:33:24.059Z,44.60
2018-06-05T09:35:52.275Z,45.10
2018-06-05T09:38:20.460Z,45.60
2018-06-05T09:40:48.671Z,47.90
2018-06-05T09:43:16.853Z,48.60
2018-06-05T09:45:45.057Z,45.00
2018-06-05T09:48:13.275Z,46.80
2018-06-05T09:50:45.094Z,47.40
2018-06-05T09:53:13.437Z,43.80
2018-06-05T09:55:41.691Z,45.00
2018-06-05T09:58:10.013Z,45.30
2018-06-05T10:00:43.574Z,43.00
2018-06-05T10:03:11.801Z,43.90
2018-06-05T10:05:40.007Z,42.90
2018-06-05T10:08:08.193Z,42.30
2018-06-05T10:10:36.416Z,43.00
2018-06-05T10:13:04.619Z,42.60
2018-06-05T10:15:32.809Z,43.70
2018-06-05T10:18:00.998Z,43.30
2018-06-05T10:20:29.213Z,43.50
2018-06-05T10:22:57.423Z,42.40
2018-06-05T10:25:25.630Z,42.00
2018-06-05T10:27:53.834Z,42.60
2018-06-05T10:30:22.034Z,43.70
2018-06-05T10:32:50.240Z,43.00
2018-06-05T10:35:18.425Z,41.60
2018-06-05T10:37:46.625Z,40.50
2018-06-05T10:40:14.856Z,39.70
2018-06-05T10:42:43.007Z,40.00
2018-06-05T10:45:11.203Z,40.40
2018-06-05T10:47:39.409Z,41.00
2018-06-05T10:50:07.627Z,41.40
2018-06-05T10:52:35.828Z,39.70
2018-06-05T10:55:04.026Z,39.30
2018-06-05T10:57:32.245Z,40.40
2018-06-05T11:00:00.450Z,40.50
2018-06-05T11:02:28.662Z,40.20
2018-06-05T11:04:56.850Z,39.30
2018-06-05T11:07:25.077Z,40.20
2018-06-05T11:09:53.302Z,39.50
2018-06-05T11:12:21.517Z,39.50
2018-06-05T11:14:49.735Z,39.60
2018-06-05T11:17:17.964Z,38.70
2018-06-05T11:19:46.157Z,38.70
2018-06-05T11:22:14.378Z,38.90
2018-06-05T11:24:42.683Z,40.10
2018-06-05T11:27:10.904Z,40.90
2018-06-05T11:32:07.077Z,41.10
2018-06-05T11:34:35.252Z,40.00
2018-06-05T11:37:03.459Z,41.50
2018-06-05T11:39:31.659Z,41.60
2018-06-05T11:41:59.866Z,40.90
2018-06-05T11:44:28.057Z,42.00
2018-06-05T11:46:56.268Z,41.60
2018-06-05T11:49:24.453Z,41.30
2018-06-05T11:51:52.656Z,39.20
2018-06-05T11:54:20.881Z,39.90
2018-06-05T11:56:49.049Z,39.80
2018-06-05T11:59:17.255Z,37.60
2018-06-05T12:01:45.542Z,40.00
2018-06-05T12:04:13.683Z,39.00
2018-06-05T12:06:41.876Z,39.30
2018-06-05T12:09:10.068Z,39.50
2018-06-05T12:11:38.271Z,38.60
2018-06-05T12:14:06.469Z,38.90
2018-06-05T12:16:34.659Z,38.00
2018-06-05T12:19:02.856Z,37.90
2018-06-05T12:21:31.041Z,39.80
2018-06-05T12:23:59.240Z,39.00
2018-06-05T12:26:27.428Z,38.60
2018-06-05T12:28:55.640Z,38.90
2018-06-05T12:31:23.821Z,37.90
2018-06-05T12:33:52.026Z,36.50
2018-06-05T12:36:20.226Z,35.10
2018-06-05T12:38:48.427Z,36.90
2018-06-05T12:41:16.628Z,37.20
2018-06-05T12:43:44.842Z,36.20
2018-06-05T12:46:13.041Z,36.90
2018-06-05T12:48:41.241Z,37.60
2018-06-05T12:53:37.395Z,37.90
2018-06-05T12:56:05.610Z,37.30
2018-06-05T12:58:33.822Z,36.60
2018-06-05T13:01:02.016Z,36.30
2018-06-05T13:03:30.223Z,35.80
2018-06-05T13:05:58.422Z,36.20
2018-06-05T13:08:26.632Z,35.70
2018-06-05T13:13:22.776Z,34.90
2018-06-05T13:15:50.968Z,34.80
2018-06-05T13:18:19.172Z,36.80
2018-06-05T13:20:47.391Z,36.40
2018-06-05T13:23:15.584Z,36.80
2018-06-05T13:25:43.782Z,37.70
2018-06-05T13:28:11.988Z,37.50
2018-06-05T13:30:40.161Z,37.80
2018-06-05T13:33:08.394Z,38.20
2018-06-05T13:35:36.582Z,39.40
2018-06-05T13:38:04.788Z,38.20
2018-06-05T13:40:32.973Z,38.70
2018-06-05T13:45:29.137Z,39.10
2018-06-05T13:47:57.323Z,39.50
2018-06-05T13:50:25.552Z,39.50
2018-06-05T13:52:53.738Z,38.70
2018-06-05T13:55:21.934Z,38.50
2018-06-05T13:57:50.117Z,39.10
2018-06-05T14:00:18.317Z,37.90
2018-06-05T14:02:46.518Z,39.00
2018-06-05T14:05:14.715Z,38.20
2018-06-05T14:07:42.944Z,38.40
2018-06-05T14:10:11.144Z,37.90
2018-06-05T14:12:39.351Z,37.70
2018-06-05T14:15:07.556Z,38.30
2018-06-05T14:17:35.756Z,37.60
2018-06-05T14:20:03.950Z,37.70
2018-06-05T14:22:32.142Z,38.50
2018-06-05T14:25:00.331Z,37.60
2018-06-05T14:27:28.569Z,38.50
2018-06-05T14:29:56.762Z,37.80
2018-06-05T14:32:25.023Z,37.90
2018-06-05T14:34:53.210Z,37.50
2018-06-05T14:39:49.394Z,36.20
2018-06-05T14:42:17.611Z,36.70
2018-06-05T14:44:45.836Z,37.30
2018-06-05T14:47:14.035Z,36.60
2018-06-05T14:49:42.254Z,35.70
2018-06-05T14:52:10.430Z,35.60
2018-06-05T14:54:38.627Z,36.30
2018-06-05T14:57:06.892Z,35.70
2018-06-05T14:59:35.087Z,35.80
2018-06-05T15:02:03.298Z,37.50
2018-06-05T15:04:31.494Z,36.50
2018-06-05T15:06:59.706Z,36.60
2018-06-05T15:09:27.915Z,35.80
2018-06-05T15:11:56.124Z,35.90
2018-06-05T15:16:52.258Z,35.90
2018-06-05T15:19:20.467Z,36.10
2018-06-05T15:21:48.683Z,35.00
2018-06-05T15:24:16.885Z,34.80
2018-06-05T15:26:45.094Z,35.10
2018-06-05T15:29:13.307Z,35.80
2018-06-05T15:31:41.527Z,36.40
2018-06-05T15:34:09.770Z,35.80
2018-06-05T15:36:37.922Z,36.90
2018-06-05T15:39:08.224Z,36.50
2018-06-05T15:41:36.624Z,36.20
2018-06-05T15:44:04.834Z,36.20
2018-06-05T15:49:00.998Z,36.10
2018-06-05T15:51:29.216Z,36.80
2018-06-05T15:53:57.418Z,36.00
2018-06-05T15:56:25.615Z,36.20
2018-06-05T15:58:53.808Z,36.60
2018-06-05T16:01:22.016Z,37.60
2018-06-05T16:03:50.223Z,37.70
2018-06-05T16:06:18.428Z,37.50
2018-06-05T16:08:46.615Z,37.20
2018-06-05T16:11:14.806Z,37.90
2018-06-05T16:13:43.007Z,37.90
2018-06-05T16:18:39.153Z,37.70
2018-06-05T16:21:07.360Z,38.00
2018-06-05T16:23:35.559Z,38.20
2018-06-05T16:26:03.781Z,38.30
2018-06-05T16:30:59.940Z,36.80
2018-06-05T16:33:28.190Z,36.80
2018-06-05T16:35:56.345Z,37.00
2018-06-05T16:38:24.529Z,37.30
2018-06-05T16:43:20.688Z,37.70
2018-06-05T16:45:48.890Z,37.10
2018-06-05T16:48:17.106Z,37.50
2018-06-05T16:50:45.294Z,37.80
2018-06-05T16:53:13.499Z,37.00
2018-06-05T16:55:41.695Z,38.00
2018-06-05T16:58:09.891Z,37.60
2018-06-05T17:00:38.090Z,38.60
2018-06-05T17:05:34.239Z,38.40
2018-06-05T17:10:30.399Z,37.90
2018-06-05T17:12:58.611Z,37.80
2018-06-05T17:15:26.798Z,38.00
2018-06-05T17:17:55.017Z,38.20
2018-06-05T17:27:47.177Z,38.40
2018-06-05T17:30:15.380Z,38.20
2018-06-05T17:32:43.649Z,37.90
2018-06-05T17:35:11.843Z,38.30
2018-06-05T17:37:40.222Z,37.90
2018-06-05T17:40:08.429Z,38.40
2018-06-05T17:42:36.664Z,38.30
2018-06-05T17:45:04.972Z,38.30
2018-06-05T17:47:33.543Z,38.80
2018-06-05T17:50:01.856Z,38.10
2018-06-05T17:54:58.029Z,38.10
2018-06-05T17:57:26.234Z,38.60
2018-06-05T17:59:54.613Z,38.30
2018-06-05T18:02:22.833Z,38.70
2018-06-05T18:04:51.028Z,38.70
2018-06-05T18:07:19.225Z,39.10
2018-06-05T18:09:47.410Z,39.10
2018-06-05T18:12:15.898Z,38.90
2018-06-05T18:14:44.284Z,39.10
2018-06-05T18:17:12.564Z,39.80
2018-06-05T18:19:40.800Z,39.40
2018-06-05T18:22:08.948Z,39.40
2018-06-05T18:24:37.139Z,39.60
2018-06-05T18:27:05.345Z,39.80
2018-06-05T18:29:33.552Z,40.20
2018-06-05T18:32:01.762Z,39.70
2018-06-05T18:34:29.945Z,40.10
2018-06-05T18:36:58.154Z,40.70
2018-06-05T18:39:26.353Z,42.20
2018-06-05T18:41:54.565Z,42.20
2018-06-05T18:44:22.763Z,42.60
2018-06-05T18:46:50.969Z,42.90
2018-06-05T18:49:19.176Z,43.10
2018-06-05T18:51:47.367Z,43.30
2018-06-05T18:54:15.607Z,43.40
2018-06-05T18:56:43.854Z,43.20
2018-06-05T18:59:11.988Z,45.10
2018-06-05T19:01:40.198Z,45.90
2018-06-05T19:04:08.425Z,46.10
2018-06-05T19:06:36.623Z,46.60
2018-06-05T19:09:07.192Z,47.10
2018-06-05T19:11:35.401Z,47.40
2018-06-05T19:14:03.853Z,47.50
2018-06-05T19:16:32.046Z,47.90
2018-06-05T19:19:00.241Z,48.00
2018-06-05T19:21:28.433Z,48.50
2018-06-05T19:23:56.646Z,48.90
2018-06-05T19:28:52.831Z,50.60
2018-06-05T19:31:21.029Z,50.90
2018-06-05T19:33:49.251Z,50.90
2018-06-05T19:38:45.388Z,51.30
2018-06-05T19:43:41.885Z,52.00
2018-06-05T19:46:10.080Z,52.40
2018-06-05T19:48:38.315Z,52.60
2018-06-05T19:51:06.498Z,52.40
2018-06-05T19:53:34.732Z,52.60
2018-06-05T19:58:30.901Z,52.80
2018-06-05T20:00:59.106Z,53.30
2018-06-05T20:03:27.304Z,53.30
2018-06-05T20:05:55.511Z,53.50
2018-06-05T20:08:23.712Z,53.90
2018-06-05T20:10:51.915Z,54.10
2018-06-05T20:13:20.118Z,54.70
2018-06-05T20:18:16.260Z,55.80
2018-06-05T20:20:44.482Z,56.50
2018-06-05T20:23:12.691Z,56.50
2018-06-05T20:25:41.054Z,56.50
2018-06-05T20:28:09.270Z,56.10
2018-06-05T20:30:37.470Z,55.30
2018-06-05T20:33:05.764Z,55.40
2018-06-05T20:35:33.964Z,55.50
2018-06-05T20:38:11.498Z,54.50
2018-06-05T20:40:44.490Z,54.20
2018-06-05T20:46:04.947Z,53.50
2018-06-05T20:49:18.119Z,54.00
2018-06-05T20:57:23.628Z,55.50
2018-06-05T21:00:10.288Z,55.70
2018-06-05T21:02:58.385Z,55.40
2018-06-05T21:10:44.492Z,55.20
2018-06-05T21:16:01.675Z,56.20
2018-06-05T21:18:31.712Z,56.10
2018-06-05T21:21:01.012Z,56.30
2018-06-05T21:23:29.515Z,56.70
2018-06-05T21:26:02.810Z,57.00
2018-06-05T21:28:38.592Z,57.30
2018-06-05T21:31:07.738Z,57.20
2018-06-05T21:33:36.301Z,57.20
2018-06-05T21:36:07.533Z,57.50
2018-06-05T21:38:37.338Z,58.10
2018-06-05T21:41:06.579Z,58.80
2018-06-05T21:46:06.266Z,58.90
2018-06-05T21:48:35.819Z,59.30
2018-06-05T21:51:04.433Z,59.10
2018-06-05T21:53:33.235Z,59.00
2018-06-05T21:56:01.656Z,59.40
2018-06-05T22:01:00.912Z,59.00
2018-06-05T22:03:33.117Z,59.00
2018-06-05T22:06:01.942Z,59.10
2018-06-05T22:08:30.312Z,57.30
2018-06-05T22:13:27.406Z,59.70
2018-06-05T22:18:25.585Z,60.10
2018-06-05T22:20:54.285Z,59.70
2018-06-05T22:23:22.689Z,60.70
2018-06-05T22:25:52.439Z,61.10
2018-06-05T22:28:21.039Z,61.80
2018-06-05T22:30:50.012Z,62.00
2018-06-05T22:33:19.093Z,62.60
2018-06-05T22:38:15.723Z,62.80
2018-06-05T22:40:44.199Z,62.60
2018-06-05T22:43:13.227Z,63.10
2018-06-05T22:48:10.768Z,61.90
2018-06-05T22:50:39.223Z,61.90
2018-06-05T22:53:07.921Z,61.60
2018-06-05T22:55:36.435Z,61.40
2018-06-05T22:58:05.676Z,61.10
2018-06-05T23:00:38.601Z,60.90
2018-06-05T23:05:39.930Z,61.30
2018-06-05T23:08:10.167Z,61.40
2018-06-05T23:10:40.564Z,61.90
2018-06-05T23:13:15.878Z,62.40
2018-06-05T23:15:44.336Z,62.80
2018-06-05T23:23:30.680Z,63.60
2018-06-05T23:34:12.882Z,62.70
2018-06-05T23:36:45.236Z,62.50
2018-06-05T23:39:21.288Z,63.10
2018-06-05T23:41:57.075Z,63.40
2018-06-05T23:44:29.804Z,63.90
2018-06-05T23:47:08.791Z,64.20
2018-06-05T23:49:46.167Z,64.30
2018-06-05T23:52:19.544Z,64.60
2018-06-05T23:54:51.876Z,64.80
2018-06-05T23:59:48.522Z,65.40
